sensor_id;sensor_type;location;lat;lon;timestamp;P1;durP1;ratioP1;P2;durP2;ratioP2
13805;SDS011;6974;53.606;9.872;2023-06-24T00:01:09;9.90;;;8.90;;
13805;SDS011;6974;53.606;9.872;2023-06-24T00:03:38;10.00;;;9.17;;
13805;SDS011;6974;53.606;9.872;2023-06-24T00:06:05;11.23;;;10.03;;
13805;SDS011;6974;53.606;9.872;2023-06-24T00:08:32;10.63;;;9.63;;
13805;SDS011;6974;53.606;9.872;2023-06-24T00:11:01;10.77;;;9.77;;
13805;SDS011;6974;53.606;9.872;2023-06-24T00:13:28;11.57;;;10.33;;
13805;SDS011;6974;53.606;9.872;2023-06-24T00:15:56;11.27;;;9.67;;
13805;SDS011;6974;53.606;9.872;2023-06-24T00:18:23;11.20;;;10.10;;
13805;SDS011;6974;53.606;9.872;2023-06-24T00:20:54;12.17;;;10.40;;
13805;SDS011;6974;53.606;9.872;2023-06-24T00:23:21;10.13;;;9.23;;
13805;SDS011;6974;53.606;9.872;2023-06-24T00:25:50;11.20;;;10.10;;
13805;SDS011;6974;53.606;9.872;2023-06-24T00:28:17;11.27;;;9.97;;
13805;SDS011;6974;53.606;9.872;2023-06-24T00:30:44;10.10;;;9.17;;
13805;SDS011;6974;53.606;9.872;2023-06-24T00:33:13;10.80;;;9.80;;
13805;SDS011;6974;53.606;9.872;2023-06-24T00:35:39;11.87;;;10.67;;
13805;SDS011;6974;53.606;9.872;2023-06-24T00:38:07;11.00;;;9.90;;
13805;SDS011;6974;53.606;9.872;2023-06-24T00:40:33;12.53;;;9.57;;
13805;SDS011;6974;53.606;9.872;2023-06-24T00:43:01;10.43;;;9.43;;
13805;SDS011;6974;53.606;9.872;2023-06-24T00:45:28;10.33;;;9.30;;
13805;SDS011;6974;53.606;9.872;2023-06-24T00:47:56;10.27;;;9.17;;
13805;SDS011;6974;53.606;9.872;2023-06-24T00:50:25;10.57;;;9.47;;
13805;SDS011;6974;53.606;9.872;2023-06-24T00:52:52;10.50;;;9.50;;
13805;SDS011;6974;53.606;9.872;2023-06-24T00:55:19;10.03;;;9.23;;
13805;SDS011;6974;53.606;9.872;2023-06-24T00:57:47;10.20;;;9.20;;
13805;SDS011;6974;53.606;9.872;2023-06-24T01:00:17;11.23;;;10.13;;
13805;SDS011;6974;53.606;9.872;2023-06-24T01:02:45;10.30;;;9.30;;
13805;SDS011;6974;53.606;9.872;2023-06-24T01:05:13;11.07;;;10.07;;
13805;SDS011;6974;53.606;9.872;2023-06-24T01:07:42;11.10;;;9.97;;
13805;SDS011;6974;53.606;9.872;2023-06-24T01:10:09;10.90;;;9.90;;
13805;SDS011;6974;53.606;9.872;2023-06-24T01:12:38;11.23;;;10.23;;
13805;SDS011;6974;53.606;9.872;2023-06-24T01:15:09;10.77;;;9.77;;
13805;SDS011;6974;53.606;9.872;2023-06-24T01:17:38;11.40;;;10.40;;
13805;SDS011;6974;53.606;9.872;2023-06-24T01:20:10;12.93;;;11.33;;
13805;SDS011;6974;53.606;9.872;2023-06-24T01:22:56;11.03;;;9.73;;
13805;SDS011;6974;53.606;9.872;2023-06-24T01:25:44;11.17;;;10.03;;
13805;SDS011;6974;53.606;9.872;2023-06-24T01:28:28;10.70;;;9.70;;
13805;SDS011;6974;53.606;9.872;2023-06-24T01:31:28;10.60;;;9.70;;
13805;SDS011;6974;53.606;9.872;2023-06-24T01:34:01;12.50;;;10.50;;
13805;SDS011;6974;53.606;9.872;2023-06-24T01:36:34;10.67;;;9.67;;
13805;SDS011;6974;53.606;9.872;2023-06-24T01:39:04;10.93;;;9.83;;
13805;SDS011;6974;53.606;9.872;2023-06-24T01:41:36;10.80;;;9.80;;
13805;SDS011;6974;53.606;9.872;2023-06-24T01:44:06;10.80;;;9.77;;
13805;SDS011;6974;53.606;9.872;2023-06-24T01:46:37;10.97;;;9.93;;
13805;SDS011;6974;53.606;9.872;2023-06-24T01:49:07;10.97;;;9.67;;
13805;SDS011;6974;53.606;9.872;2023-06-24T01:51:38;9.60;;;8.80;;
13805;SDS011;6974;53.606;9.872;2023-06-24T01:54:07;9.80;;;9.00;;
13805;SDS011;6974;53.606;9.872;2023-06-24T01:56:37;10.20;;;9.20;;
13805;SDS011;6974;53.606;9.872;2023-06-24T01:59:05;9.77;;;8.87;;
13805;SDS011;6974;53.606;9.872;2023-06-24T02:01:33;9.87;;;8.93;;
13805;SDS011;6974;53.606;9.872;2023-06-24T02:04:05;11.20;;;9.93;;
13805;SDS011;6974;53.606;9.872;2023-06-24T02:06:35;10.50;;;9.57;;
13805;SDS011;6974;53.606;9.872;2023-06-24T02:09:02;11.33;;;10.33;;
13805;SDS011;6974;53.606;9.872;2023-06-24T02:11:31;10.93;;;9.97;;
13805;SDS011;6974;53.606;9.872;2023-06-24T02:14:01;10.70;;;9.70;;
13805;SDS011;6974;53.606;9.872;2023-06-24T02:16:28;10.77;;;9.63;;
13805;SDS011;6974;53.606;9.872;2023-06-24T02:18:56;11.20;;;10.17;;
13805;SDS011;6974;53.606;9.872;2023-06-24T02:21:25;10.50;;;9.50;;
13805;SDS011;6974;53.606;9.872;2023-06-24T02:23:53;11.30;;;10.20;;
13805;SDS011;6974;53.606;9.872;2023-06-24T02:26:21;11.27;;;10.20;;
13805;SDS011;6974;53.606;9.872;2023-06-24T02:28:48;11.63;;;10.63;;
13805;SDS011;6974;53.606;9.872;2023-06-24T02:31:16;11.03;;;9.93;;
13805;SDS011;6974;53.606;9.872;2023-06-24T02:33:44;11.87;;;10.77;;
13805;SDS011;6974;53.606;9.872;2023-06-24T02:36:11;12.37;;;10.93;;
13805;SDS011;6974;53.606;9.872;2023-06-24T02:38:39;12.37;;;11.07;;
13805;SDS011;6974;53.606;9.872;2023-06-24T02:41:06;12.50;;;11.37;;
13805;SDS011;6974;53.606;9.872;2023-06-24T02:43:33;12.33;;;11.23;;
13805;SDS011;6974;53.606;9.872;2023-06-24T02:46:01;13.37;;;11.97;;
13805;SDS011;6974;53.606;9.872;2023-06-24T02:48:29;13.03;;;11.80;;
13805;SDS011;6974;53.606;9.872;2023-06-24T02:50:59;12.60;;;11.50;;
13805;SDS011;6974;53.606;9.872;2023-06-24T02:53:26;13.23;;;12.03;;
13805;SDS011;6974;53.606;9.872;2023-06-24T02:55:55;12.03;;;10.93;;
13805;SDS011;6974;53.606;9.872;2023-06-24T02:58:23;13.03;;;11.83;;
13805;SDS011;6974;53.606;9.872;2023-06-24T03:00:56;13.90;;;12.60;;
13805;SDS011;6974;53.606;9.872;2023-06-24T03:03:24;12.73;;;11.43;;
13805;SDS011;6974;53.606;9.872;2023-06-24T03:05:52;13.93;;;12.57;;
13805;SDS011;6974;53.606;9.872;2023-06-24T03:08:21;13.07;;;11.77;;
13805;SDS011;6974;53.606;9.872;2023-06-24T03:10:48;13.30;;;12.10;;
13805;SDS011;6974;53.606;9.872;2023-06-24T03:13:17;13.57;;;12.27;;
13805;SDS011;6974;53.606;9.872;2023-06-24T03:15:43;14.53;;;13.13;;
13805;SDS011;6974;53.606;9.872;2023-06-24T03:18:10;13.30;;;12.03;;
13805;SDS011;6974;53.606;9.872;2023-06-24T03:20:37;13.93;;;12.43;;
13805;SDS011;6974;53.606;9.872;2023-06-24T03:23:05;13.17;;;11.90;;
13805;SDS011;6974;53.606;9.872;2023-06-24T03:25:32;12.93;;;11.73;;
13805;SDS011;6974;53.606;9.872;2023-06-24T03:27:58;12.83;;;11.53;;
13805;SDS011;6974;53.606;9.872;2023-06-24T03:30:27;14.10;;;12.80;;
13805;SDS011;6974;53.606;9.872;2023-06-24T03:32:54;14.07;;;12.77;;
13805;SDS011;6974;53.606;9.872;2023-06-24T03:35:22;14.63;;;13.23;;
13805;SDS011;6974;53.606;9.872;2023-06-24T03:37:49;14.00;;;12.80;;
13805;SDS011;6974;53.606;9.872;2023-06-24T03:40:16;14.93;;;12.93;;
13805;SDS011;6974;53.606;9.872;2023-06-24T03:42:43;13.60;;;12.40;;
13805;SDS011;6974;53.606;9.872;2023-06-24T03:45:10;14.23;;;12.93;;
13805;SDS011;6974;53.606;9.872;2023-06-24T03:47:39;14.53;;;13.03;;
13805;SDS011;6974;53.606;9.872;2023-06-24T03:50:06;14.17;;;12.77;;
13805;SDS011;6974;53.606;9.872;2023-06-24T03:52:33;14.87;;;13.37;;
13805;SDS011;6974;53.606;9.872;2023-06-24T03:55:00;14.73;;;13.20;;
13805;SDS011;6974;53.606;9.872;2023-06-24T03:57:29;15.10;;;13.53;;
13805;SDS011;6974;53.606;9.872;2023-06-24T03:59:56;15.37;;;13.87;;
13805;SDS011;6974;53.606;9.872;2023-06-24T04:02:23;14.83;;;13.43;;
13805;SDS011;6974;53.606;9.872;2023-06-24T04:04:53;15.03;;;13.63;;
13805;SDS011;6974;53.606;9.872;2023-06-24T04:07:21;15.40;;;13.90;;
13805;SDS011;6974;53.606;9.872;2023-06-24T04:09:53;16.30;;;14.73;;
13805;SDS011;6974;53.606;9.872;2023-06-24T04:12:21;15.87;;;14.37;;
13805;SDS011;6974;53.606;9.872;2023-06-24T04:14:48;16.03;;;14.57;;
13805;SDS011;6974;53.606;9.872;2023-06-24T04:17:15;16.33;;;14.73;;
13805;SDS011;6974;53.606;9.872;2023-06-24T04:19:42;17.77;;;15.87;;
13805;SDS011;6974;53.606;9.872;2023-06-24T04:22:10;18.10;;;16.30;;
13805;SDS011;6974;53.606;9.872;2023-06-24T04:24:37;17.43;;;15.77;;
13805;SDS011;6974;53.606;9.872;2023-06-24T04:27:05;16.67;;;15.13;;
13805;SDS011;6974;53.606;9.872;2023-06-24T04:29:33;17.60;;;15.90;;
13805;SDS011;6974;53.606;9.872;2023-06-24T04:32:00;17.87;;;16.07;;
13805;SDS011;6974;53.606;9.872;2023-06-24T04:34:27;17.70;;;16.07;;
13805;SDS011;6974;53.606;9.872;2023-06-24T04:36:54;19.07;;;17.10;;
13805;SDS011;6974;53.606;9.872;2023-06-24T04:39:22;18.67;;;16.87;;
13805;SDS011;6974;53.606;9.872;2023-06-24T04:41:49;19.47;;;17.37;;
13805;SDS011;6974;53.606;9.872;2023-06-24T04:44:16;18.43;;;16.53;;
13805;SDS011;6974;53.606;9.872;2023-06-24T04:46:45;18.80;;;16.90;;
13805;SDS011;6974;53.606;9.872;2023-06-24T04:49:11;20.10;;;18.13;;
13805;SDS011;6974;53.606;9.872;2023-06-24T04:51:38;18.77;;;16.87;;
13805;SDS011;6974;53.606;9.872;2023-06-24T04:54:07;19.13;;;17.20;;
13805;SDS011;6974;53.606;9.872;2023-06-24T04:56:35;17.83;;;16.03;;
13805;SDS011;6974;53.606;9.872;2023-06-24T04:59:02;18.00;;;16.03;;
13805;SDS011;6974;53.606;9.872;2023-06-24T05:01:29;17.27;;;15.47;;
13805;SDS011;6974;53.606;9.872;2023-06-24T05:03:55;18.27;;;16.40;;
13805;SDS011;6974;53.606;9.872;2023-06-24T05:06:22;18.77;;;16.77;;
13805;SDS011;6974;53.606;9.872;2023-06-24T05:08:49;18.07;;;16.20;;
13805;SDS011;6974;53.606;9.872;2023-06-24T05:11:16;17.63;;;15.93;;
13805;SDS011;6974;53.606;9.872;2023-06-24T05:13:44;18.13;;;16.33;;
13805;SDS011;6974;53.606;9.872;2023-06-24T05:16:11;16.73;;;14.77;;
13805;SDS011;6974;53.606;9.872;2023-06-24T05:18:38;15.60;;;14.00;;
13805;SDS011;6974;53.606;9.872;2023-06-24T05:21:05;14.67;;;13.27;;
13805;SDS011;6974;53.606;9.872;2023-06-24T05:23:32;14.00;;;12.50;;
13805;SDS011;6974;53.606;9.872;2023-06-24T05:25:59;12.93;;;11.57;;
13805;SDS011;6974;53.606;9.872;2023-06-24T05:28:25;13.50;;;12.10;;
13805;SDS011;6974;53.606;9.872;2023-06-24T05:30:54;11.93;;;9.63;;
13805;SDS011;6974;53.606;9.872;2023-06-24T05:33:20;8.13;;;7.33;;
13805;SDS011;6974;53.606;9.872;2023-06-24T05:35:47;8.77;;;7.87;;
13805;SDS011;6974;53.606;9.872;2023-06-24T05:38:15;7.53;;;6.83;;
13805;SDS011;6974;53.606;9.872;2023-06-24T05:40:42;7.80;;;7.00;;
13805;SDS011;6974;53.606;9.872;2023-06-24T05:43:09;8.73;;;7.03;;
13805;SDS011;6974;53.606;9.872;2023-06-24T05:45:36;7.77;;;6.83;;
13805;SDS011;6974;53.606;9.872;2023-06-24T05:48:05;8.73;;;7.63;;
13805;SDS011;6974;53.606;9.872;2023-06-24T05:50:32;7.03;;;6.23;;
13805;SDS011;6974;53.606;9.872;2023-06-24T05:52:59;7.37;;;6.30;;
13805;SDS011;6974;53.606;9.872;2023-06-24T05:55:26;9.20;;;6.47;;
13805;SDS011;6974;53.606;9.872;2023-06-24T05:57:52;9.60;;;6.07;;
13805;SDS011;6974;53.606;9.872;2023-06-24T06:00:19;7.07;;;5.90;;
13805;SDS011;6974;53.606;9.872;2023-06-24T06:02:46;6.03;;;5.47;;
13805;SDS011;6974;53.606;9.872;2023-06-24T06:05:15;5.70;;;5.20;;
13805;SDS011;6974;53.606;9.872;2023-06-24T06:07:42;9.00;;;5.53;;
13805;SDS011;6974;53.606;9.872;2023-06-24T06:10:09;6.40;;;5.80;;
13805;SDS011;6974;53.606;9.872;2023-06-24T06:12:36;7.43;;;6.73;;
13805;SDS011;6974;53.606;9.872;2023-06-24T06:15:03;7.93;;;6.27;;
13805;SDS011;6974;53.606;9.872;2023-06-24T06:17:31;10.50;;;6.40;;
13805;SDS011;6974;53.606;9.872;2023-06-24T06:19:58;9.20;;;6.00;;
13805;SDS011;6974;53.606;9.872;2023-06-24T06:22:27;6.67;;;5.97;;
13805;SDS011;6974;53.606;9.872;2023-06-24T06:24:53;7.53;;;6.13;;
13805;SDS011;6974;53.606;9.872;2023-06-24T06:27:20;8.77;;;6.57;;
13805;SDS011;6974;53.606;9.872;2023-06-24T06:29:47;6.53;;;5.70;;
13805;SDS011;6974;53.606;9.872;2023-06-24T06:32:14;6.43;;;5.67;;
13805;SDS011;6974;53.606;9.872;2023-06-24T06:34:41;6.97;;;5.90;;
13805;SDS011;6974;53.606;9.872;2023-06-24T06:37:08;6.50;;;5.90;;
13805;SDS011;6974;53.606;9.872;2023-06-24T06:39:36;6.77;;;6.00;;
13805;SDS011;6974;53.606;9.872;2023-06-24T06:42:03;6.77;;;6.13;;
13805;SDS011;6974;53.606;9.872;2023-06-24T06:44:30;6.93;;;6.30;;
13805;SDS011;6974;53.606;9.872;2023-06-24T06:46:57;7.27;;;5.83;;
13805;SDS011;6974;53.606;9.872;2023-06-24T06:49:24;7.57;;;5.93;;
13805;SDS011;6974;53.606;9.872;2023-06-24T06:51:51;6.47;;;5.77;;
13805;SDS011;6974;53.606;9.872;2023-06-24T06:54:20;6.43;;;5.83;;
13805;SDS011;6974;53.606;9.872;2023-06-24T06:56:48;7.37;;;6.50;;
13805;SDS011;6974;53.606;9.872;2023-06-24T06:59:15;6.77;;;6.07;;
13805;SDS011;6974;53.606;9.872;2023-06-24T07:01:42;6.37;;;5.13;;
13805;SDS011;6974;53.606;9.872;2023-06-24T07:04:09;5.60;;;5.10;;
13805;SDS011;6974;53.606;9.872;2023-06-24T07:06:36;6.27;;;4.93;;
13805;SDS011;6974;53.606;9.872;2023-06-24T07:09:03;5.70;;;5.17;;
13805;SDS011;6974;53.606;9.872;2023-06-24T07:11:30;6.33;;;5.07;;
13805;SDS011;6974;53.606;9.872;2023-06-24T07:13:58;6.57;;;5.40;;
13805;SDS011;6974;53.606;9.872;2023-06-24T07:16:25;5.97;;;5.13;;
13805;SDS011;6974;53.606;9.872;2023-06-24T07:18:51;5.90;;;4.80;;
13805;SDS011;6974;53.606;9.872;2023-06-24T07:21:18;5.60;;;5.10;;
13805;SDS011;6974;53.606;9.872;2023-06-24T07:23:46;6.33;;;5.50;;
13805;SDS011;6974;53.606;9.872;2023-06-24T07:26:12;6.00;;;5.50;;
13805;SDS011;6974;53.606;9.872;2023-06-24T07:28:40;6.83;;;6.10;;
13805;SDS011;6974;53.606;9.872;2023-06-24T07:31:08;5.97;;;4.87;;
13805;SDS011;6974;53.606;9.872;2023-06-24T07:33:35;5.60;;;5.10;;
13805;SDS011;6974;53.606;9.872;2023-06-24T07:36:03;5.93;;;5.30;;
13805;SDS011;6974;53.606;9.872;2023-06-24T07:38:30;5.07;;;4.67;;
13805;SDS011;6974;53.606;9.872;2023-06-24T07:40:57;7.30;;;5.53;;
13805;SDS011;6974;53.606;9.872;2023-06-24T07:43:23;7.77;;;4.97;;
13805;SDS011;6974;53.606;9.872;2023-06-24T07:45:50;5.60;;;5.10;;
13805;SDS011;6974;53.606;9.872;2023-06-24T07:48:19;6.70;;;4.70;;
13805;SDS011;6974;53.606;9.872;2023-06-24T07:50:46;6.50;;;5.07;;
13805;SDS011;6974;53.606;9.872;2023-06-24T07:53:13;7.63;;;4.70;;
13805;SDS011;6974;53.606;9.872;2023-06-24T07:55:39;4.93;;;4.50;;
13805;SDS011;6974;53.606;9.872;2023-06-24T07:58:06;5.47;;;4.97;;
13805;SDS011;6974;53.606;9.872;2023-06-24T08:00:33;5.73;;;5.10;;
13805;SDS011;6974;53.606;9.872;2023-06-24T08:03:00;5.23;;;4.80;;
13805;SDS011;6974;53.606;9.872;2023-06-24T08:05:29;7.77;;;5.17;;
13805;SDS011;6974;53.606;9.872;2023-06-24T08:07:55;5.17;;;4.67;;
13805;SDS011;6974;53.606;9.872;2023-06-24T08:10:22;5.83;;;4.57;;
13805;SDS011;6974;53.606;9.872;2023-06-24T08:12:49;4.90;;;4.40;;
13805;SDS011;6974;53.606;9.872;2023-06-24T08:15:16;5.23;;;4.40;;
13805;SDS011;6974;53.606;9.872;2023-06-24T08:17:43;5.00;;;4.40;;
13805;SDS011;6974;53.606;9.872;2023-06-24T08:20:10;6.20;;;5.60;;
13805;SDS011;6974;53.606;9.872;2023-06-24T08:22:39;5.80;;;4.90;;
13805;SDS011;6974;53.606;9.872;2023-06-24T08:25:06;5.53;;;4.87;;
13805;SDS011;6974;53.606;9.872;2023-06-24T08:27:33;5.50;;;5.00;;
13805;SDS011;6974;53.606;9.872;2023-06-24T08:30:02;8.73;;;4.90;;
13805;SDS011;6974;53.606;9.872;2023-06-24T08:32:29;4.90;;;4.50;;
13805;SDS011;6974;53.606;9.872;2023-06-24T08:34:56;5.40;;;4.90;;
13805;SDS011;6974;53.606;9.872;2023-06-24T08:37:23;5.83;;;4.60;;
13805;SDS011;6974;53.606;9.872;2023-06-24T08:39:51;5.10;;;4.60;;
13805;SDS011;6974;53.606;9.872;2023-06-24T08:42:18;6.50;;;4.60;;
13805;SDS011;6974;53.606;9.872;2023-06-24T08:44:45;4.90;;;4.50;;
13805;SDS011;6974;53.606;9.872;2023-06-24T08:47:11;5.43;;;4.70;;
13805;SDS011;6974;53.606;9.872;2023-06-24T08:49:41;5.07;;;4.30;;
13805;SDS011;6974;53.606;9.872;2023-06-24T08:52:15;5.00;;;4.33;;
13805;SDS011;6974;53.606;9.872;2023-06-24T08:54:45;4.30;;;3.90;;
13805;SDS011;6974;53.606;9.872;2023-06-24T08:57:15;4.83;;;4.03;;
13805;SDS011;6974;53.606;9.872;2023-06-24T08:59:43;4.60;;;3.97;;
13805;SDS011;6974;53.606;9.872;2023-06-24T09:02:11;4.60;;;4.10;;
13805;SDS011;6974;53.606;9.872;2023-06-24T09:04:39;4.90;;;4.40;;
13805;SDS011;6974;53.606;9.872;2023-06-24T09:07:07;4.63;;;4.20;;
13805;SDS011;6974;53.606;9.872;2023-06-24T09:09:41;4.80;;;4.37;;
13805;SDS011;6974;53.606;9.872;2023-06-24T09:12:10;5.47;;;4.70;;
13805;SDS011;6974;53.606;9.872;2023-06-24T09:14:39;4.80;;;4.33;;
13805;SDS011;6974;53.606;9.872;2023-06-24T09:17:06;5.37;;;4.70;;
13805;SDS011;6974;53.606;9.872;2023-06-24T09:19:34;5.63;;;4.40;;
13805;SDS011;6974;53.606;9.872;2023-06-24T09:22:02;7.17;;;4.97;;
13805;SDS011;6974;53.606;9.872;2023-06-24T09:24:30;5.20;;;4.70;;
13805;SDS011;6974;53.606;9.872;2023-06-24T09:26:57;4.90;;;4.40;;
13805;SDS011;6974;53.606;9.872;2023-06-24T09:29:25;5.40;;;4.33;;
13805;SDS011;6974;53.606;9.872;2023-06-24T09:31:53;7.27;;;4.83;;
13805;SDS011;6974;53.606;9.872;2023-06-24T09:34:22;4.97;;;4.47;;
13805;SDS011;6974;53.606;9.872;2023-06-24T09:36:51;5.63;;;5.03;;
13805;SDS011;6974;53.606;9.872;2023-06-24T09:39:18;6.13;;;4.20;;
13805;SDS011;6974;53.606;9.872;2023-06-24T09:41:48;5.13;;;4.33;;
13805;SDS011;6974;53.606;9.872;2023-06-24T09:44:15;5.13;;;4.50;;
13805;SDS011;6974;53.606;9.872;2023-06-24T09:46:44;7.23;;;5.27;;
13805;SDS011;6974;53.606;9.872;2023-06-24T09:49:12;6.73;;;4.70;;
13805;SDS011;6974;53.606;9.872;2023-06-24T09:51:40;5.97;;;5.37;;
13805;SDS011;6974;53.606;9.872;2023-06-24T09:54:10;7.20;;;5.77;;
13805;SDS011;6974;53.606;9.872;2023-06-24T09:56:39;6.67;;;6.07;;
13805;SDS011;6974;53.606;9.872;2023-06-24T09:59:08;6.03;;;5.43;;
13805;SDS011;6974;53.606;9.872;2023-06-24T10:01:38;9.33;;;5.33;;
13805;SDS011;6974;53.606;9.872;2023-06-24T10:04:06;6.97;;;5.33;;
13805;SDS011;6974;53.606;9.872;2023-06-24T10:06:35;6.00;;;5.40;;
13805;SDS011;6974;53.606;9.872;2023-06-24T10:09:02;6.00;;;5.40;;
13805;SDS011;6974;53.606;9.872;2023-06-24T10:11:29;6.00;;;5.40;;
13805;SDS011;6974;53.606;9.872;2023-06-24T10:13:56;5.57;;;5.00;;
13805;SDS011;6974;53.606;9.872;2023-06-24T10:16:23;5.20;;;4.80;;
13805;SDS011;6974;53.606;9.872;2023-06-24T10:18:50;5.53;;;5.03;;
13805;SDS011;6974;53.606;9.872;2023-06-24T10:21:17;5.53;;;5.03;;
13805;SDS011;6974;53.606;9.872;2023-06-24T10:23:52;5.87;;;5.20;;
13805;SDS011;6974;53.606;9.872;2023-06-24T10:26:24;6.03;;;5.43;;
13805;SDS011;6974;53.606;9.872;2023-06-24T10:29:11;5.10;;;4.53;;
13805;SDS011;6974;53.606;9.872;2023-06-24T10:31:50;5.97;;;5.33;;
13805;SDS011;6974;53.606;9.872;2023-06-24T10:34:27;6.03;;;5.37;;
13805;SDS011;6974;53.606;9.872;2023-06-24T10:36:58;5.73;;;5.13;;
13805;SDS011;6974;53.606;9.872;2023-06-24T10:39:42;5.77;;;5.27;;
13805;SDS011;6974;53.606;9.872;2023-06-24T10:42:28;6.90;;;5.10;;
13805;SDS011;6974;53.606;9.872;2023-06-24T10:44:56;6.23;;;5.63;;
13805;SDS011;6974;53.606;9.872;2023-06-24T10:47:25;5.77;;;5.37;;
13805;SDS011;6974;53.606;9.872;2023-06-24T10:49:52;5.43;;;4.93;;
13805;SDS011;6974;53.606;9.872;2023-06-24T10:52:20;6.10;;;5.50;;
13805;SDS011;6974;53.606;9.872;2023-06-24T10:54:49;6.10;;;5.50;;
13805;SDS011;6974;53.606;9.872;2023-06-24T10:57:20;6.03;;;5.00;;
13805;SDS011;6974;53.606;9.872;2023-06-24T10:59:49;5.53;;;5.03;;
13805;SDS011;6974;53.606;9.872;2023-06-24T11:02:17;5.33;;;4.93;;
13805;SDS011;6974;53.606;9.872;2023-06-24T11:04:44;5.27;;;4.87;;
13805;SDS011;6974;53.606;9.872;2023-06-24T11:07:11;5.17;;;4.63;;
13805;SDS011;6974;53.606;9.872;2023-06-24T11:09:39;4.90;;;4.50;;
13805;SDS011;6974;53.606;9.872;2023-06-24T11:12:09;5.80;;;4.60;;
13805;SDS011;6974;53.606;9.872;2023-06-24T11:14:37;5.53;;;4.97;;
13805;SDS011;6974;53.606;9.872;2023-06-24T11:17:05;5.37;;;4.87;;
13805;SDS011;6974;53.606;9.872;2023-06-24T11:19:32;5.53;;;5.03;;
13805;SDS011;6974;53.606;9.872;2023-06-24T11:22:04;5.10;;;4.60;;
13805;SDS011;6974;53.606;9.872;2023-06-24T11:24:31;5.33;;;4.70;;
13805;SDS011;6974;53.606;9.872;2023-06-24T11:26:58;5.80;;;5.20;;
13805;SDS011;6974;53.606;9.872;2023-06-24T11:29:29;5.77;;;5.27;;
13805;SDS011;6974;53.606;9.872;2023-06-24T11:31:56;5.47;;;4.80;;
13805;SDS011;6974;53.606;9.872;2023-06-24T11:34:23;6.67;;;5.70;;
13805;SDS011;6974;53.606;9.872;2023-06-24T11:36:50;6.03;;;5.17;;
13805;SDS011;6974;53.606;9.872;2023-06-24T11:39:20;5.47;;;4.97;;
13805;SDS011;6974;53.606;9.872;2023-06-24T11:41:48;4.70;;;4.30;;
13805;SDS011;6974;53.606;9.872;2023-06-24T11:44:16;5.00;;;4.60;;
13805;SDS011;6974;53.606;9.872;2023-06-24T11:46:45;5.40;;;4.90;;
13805;SDS011;6974;53.606;9.872;2023-06-24T11:49:13;5.47;;;4.97;;
13805;SDS011;6974;53.606;9.872;2023-06-24T11:51:45;6.53;;;5.10;;
13805;SDS011;6974;53.606;9.872;2023-06-24T11:54:14;5.83;;;5.33;;
13805;SDS011;6974;53.606;9.872;2023-06-24T11:56:42;5.80;;;4.60;;
13805;SDS011;6974;53.606;9.872;2023-06-24T11:59:17;5.13;;;4.73;;
13805;SDS011;6974;53.606;9.872;2023-06-24T12:01:46;5.67;;;5.13;;
13805;SDS011;6974;53.606;9.872;2023-06-24T12:04:19;4.60;;;4.20;;
13805;SDS011;6974;53.606;9.872;2023-06-24T12:06:47;4.93;;;4.43;;
13805;SDS011;6974;53.606;9.872;2023-06-24T12:09:14;4.53;;;4.13;;
13805;SDS011;6974;53.606;9.872;2023-06-24T12:11:41;5.77;;;5.17;;
13805;SDS011;6974;53.606;9.872;2023-06-24T12:14:08;5.00;;;4.60;;
13805;SDS011;6974;53.606;9.872;2023-06-24T12:16:35;4.47;;;4.07;;
13805;SDS011;6974;53.606;9.872;2023-06-24T12:19:03;5.10;;;4.40;;
13805;SDS011;6974;53.606;9.872;2023-06-24T12:21:30;4.90;;;4.50;;
13805;SDS011;6974;53.606;9.872;2023-06-24T12:23:57;5.20;;;4.80;;
13805;SDS011;6974;53.606;9.872;2023-06-24T12:26:24;5.00;;;4.60;;
13805;SDS011;6974;53.606;9.872;2023-06-24T12:28:53;5.00;;;4.60;;
13805;SDS011;6974;53.606;9.872;2023-06-24T12:31:21;4.57;;;4.17;;
13805;SDS011;6974;53.606;9.872;2023-06-24T12:33:47;5.07;;;4.50;;
13805;SDS011;6974;53.606;9.872;2023-06-24T12:36:16;6.27;;;4.20;;
13805;SDS011;6974;53.606;9.872;2023-06-24T12:38:42;5.03;;;4.53;;
13805;SDS011;6974;53.606;9.872;2023-06-24T12:41:09;5.20;;;4.70;;
13805;SDS011;6974;53.606;9.872;2023-06-24T12:43:36;5.40;;;4.90;;
13805;SDS011;6974;53.606;9.872;2023-06-24T12:46:03;5.20;;;4.80;;
13805;SDS011;6974;53.606;9.872;2023-06-24T12:48:30;5.93;;;5.20;;
13805;SDS011;6974;53.606;9.872;2023-06-24T12:50:57;5.83;;;5.23;;
13805;SDS011;6974;53.606;9.872;2023-06-24T12:53:25;5.47;;;4.93;;
13805;SDS011;6974;53.606;9.872;2023-06-24T12:55:52;6.00;;;4.73;;
13805;SDS011;6974;53.606;9.872;2023-06-24T12:58:22;7.17;;;4.87;;
13805;SDS011;6974;53.606;9.872;2023-06-24T13:00:49;10.20;;;4.90;;
13805;SDS011;6974;53.606;9.872;2023-06-24T13:03:16;6.33;;;5.73;;
13805;SDS011;6974;53.606;9.872;2023-06-24T13:05:43;6.30;;;5.63;;
13805;SDS011;6974;53.606;9.872;2023-06-24T13:08:10;5.20;;;4.70;;
13805;SDS011;6974;53.606;9.872;2023-06-24T13:10:38;5.70;;;5.10;;
13805;SDS011;6974;53.606;9.872;2023-06-24T13:13:05;5.67;;;4.83;;
13805;SDS011;6974;53.606;9.872;2023-06-24T13:15:32;5.33;;;4.50;;
13805;SDS011;6974;53.606;9.872;2023-06-24T13:17:59;5.10;;;4.70;;
13805;SDS011;6974;53.606;9.872;2023-06-24T13:20:26;5.17;;;4.57;;
13805;SDS011;6974;53.606;9.872;2023-06-24T13:22:53;4.97;;;4.53;;
13805;SDS011;6974;53.606;9.872;2023-06-24T13:25:20;4.40;;;4.00;;
13805;SDS011;6974;53.606;9.872;2023-06-24T13:27:48;5.20;;;4.80;;
13805;SDS011;6974;53.606;9.872;2023-06-24T13:30:15;6.50;;;4.47;;
13805;SDS011;6974;53.606;9.872;2023-06-24T13:32:42;5.77;;;4.83;;
13805;SDS011;6974;53.606;9.872;2023-06-24T13:35:10;5.13;;;4.47;;
13805;SDS011;6974;53.606;9.872;2023-06-24T13:37:36;4.90;;;4.50;;
13805;SDS011;6974;53.606;9.872;2023-06-24T13:40:04;5.03;;;4.53;;
13805;SDS011;6974;53.606;9.872;2023-06-24T13:42:32;4.73;;;4.30;;
13805;SDS011;6974;53.606;9.872;2023-06-24T13:45:01;4.47;;;4.07;;
13805;SDS011;6974;53.606;9.872;2023-06-24T13:47:28;4.87;;;4.17;;
13805;SDS011;6974;53.606;9.872;2023-06-24T13:49:55;5.10;;;4.60;;
13805;SDS011;6974;53.606;9.872;2023-06-24T13:52:23;4.60;;;4.20;;
13805;SDS011;6974;53.606;9.872;2023-06-24T13:54:50;4.67;;;4.23;;
13805;SDS011;6974;53.606;9.872;2023-06-24T13:57:17;5.17;;;4.70;;
13805;SDS011;6974;53.606;9.872;2023-06-24T13:59:44;4.97;;;4.57;;
13805;SDS011;6974;53.606;9.872;2023-06-24T14:02:12;4.30;;;3.90;;
13805;SDS011;6974;53.606;9.872;2023-06-24T14:04:39;4.53;;;4.13;;
13805;SDS011;6974;53.606;9.872;2023-06-24T14:07:06;4.63;;;4.23;;
13805;SDS011;6974;53.606;9.872;2023-06-24T14:09:33;5.30;;;4.43;;
13805;SDS011;6974;53.606;9.872;2023-06-24T14:12:00;4.63;;;4.27;;
13805;SDS011;6974;53.606;9.872;2023-06-24T14:14:27;4.90;;;4.40;;
13805;SDS011;6974;53.606;9.872;2023-06-24T14:16:54;4.83;;;4.40;;
13805;SDS011;6974;53.606;9.872;2023-06-24T14:19:22;4.90;;;4.50;;
13805;SDS011;6974;53.606;9.872;2023-06-24T14:21:49;4.97;;;4.57;;
13805;SDS011;6974;53.606;9.872;2023-06-24T14:24:16;7.33;;;4.80;;
13805;SDS011;6974;53.606;9.872;2023-06-24T14:26:43;5.30;;;4.70;;
13805;SDS011;6974;53.606;9.872;2023-06-24T14:29:14;5.20;;;4.20;;
13805;SDS011;6974;53.606;9.872;2023-06-24T14:31:41;3.97;;;3.67;;
13805;SDS011;6974;53.606;9.872;2023-06-24T14:34:08;8.07;;;4.20;;
13805;SDS011;6974;53.606;9.872;2023-06-24T14:36:36;5.60;;;4.47;;
13805;SDS011;6974;53.606;9.872;2023-06-24T14:39:03;4.93;;;4.30;;
13805;SDS011;6974;53.606;9.872;2023-06-24T14:41:30;4.80;;;4.40;;
13805;SDS011;6974;53.606;9.872;2023-06-24T14:43:57;5.03;;;4.60;;
13805;SDS011;6974;53.606;9.872;2023-06-24T14:46:24;4.37;;;3.97;;
13805;SDS011;6974;53.606;9.872;2023-06-24T14:48:51;4.73;;;4.33;;
13805;SDS011;6974;53.606;9.872;2023-06-24T14:51:18;4.50;;;4.10;;
13805;SDS011;6974;53.606;9.872;2023-06-24T14:53:46;4.80;;;4.37;;
13805;SDS011;6974;53.606;9.872;2023-06-24T14:56:13;4.87;;;4.37;;
13805;SDS011;6974;53.606;9.872;2023-06-24T14:58:40;4.90;;;4.50;;